Time;durP1;ratioP1;P1;durP2;ratioP2;P2;SDS_P1;SDS_P2;PMS_P1;PMS_P2;Temp;Humidity;BMP_temperature;BMP_pressure;BME280_temperature;BME280_humidity;BME280_pressure;Samples;Min_cycle;Max_cycle;Signal;HPM_P1;HPM_P2
2023/07/28 00:02:08;;;;;;;1.63;0.90;;;;;;;;;;4989351;28;20471;-82
2023/07/28 00:04:35;;;;;;;2.13;0.77;;;18.60;90.30;;;;;;4988792;28;20038;-82
2023/07/28 00:07:01;;;;;;;2.15;0.90;;;;;;;;;;4989592;28;20022;-81
2023/07/28 00:09:27;;;;;;;0.77;0.75;;;;;;;;;;4989456;28;20034;-82
2023/07/28 00:11:53;;;;;;;1.00;0.65;;;;;;;;;;4989453;28;20041;-83
2023/07/28 00:14:19;;;;;;;1.45;1.10;;;;;;;;;;4989512;28;20049;-82
2023/07/28 00:16:45;;;;;;;2.03;1.27;;;;;;;;;;4992112;28;20038;-82
2023/07/28 00:19:11;;;;;;;3.47;1.33;;;;;;;;;;4987958;28;20033;-82
2023/07/28 00:21:38;;;;;;;4.90;1.20;;;;;;;;;;4989699;28;20022;-82
2023/07/28 00:24:04;;;;;;;1.95;0.80;;;;;;;;;;4989387;28;21000;-82
2023/07/28 00:26:30;;;;;;;2.85;0.75;;;;;;;;;;4993167;28;20044;-82
2023/07/28 00:28:57;;;;;;;2.13;1.00;;;;;;;;;;4993819;28;20117;-82
2023/07/28 00:31:23;;;;;;;1.60;0.85;;;;;;;;;;4993284;28;20061;-82
2023/07/28 00:33:49;;;;;;;1.67;0.75;;;;;;;;;;4993289;28;20571;-81
2023/07/28 00:36:15;;;;;;;2.75;1.08;;;;;;;;;;4992390;28;20100;-82
2023/07/28 00:38:41;;;;;;;1.30;1.20;;;;;;;;;;4992960;28;20057;-82
2023/07/28 00:41:07;;;;;;;3.75;1.00;;;;;;;;;;4994234;28;20490;-82
2023/07/28 00:43:33;;;;;;;1.95;1.00;;;;;;;;;;5005087;28;20034;-82
2023/07/28 00:45:59;;;;;;;1.85;1.02;;;;;;;;;;4992578;28;20113;-82
2023/07/28 00:48:26;;;;;;;2.33;0.80;;;;;;;;;;4990765;28;20411;-82
2023/07/28 00:50:54;;;;;;;2.10;1.00;;;18.20;99.90;;;;;;4994871;28;20042;-82
2023/07/28 00:53:20;;;;;;;1.05;0.65;;;;;;;;;;4991345;28;20500;-82
2023/07/28 00:55:46;;;;;;;3.47;0.90;;;;;;;;;;4986019;28;20116;-81
2023/07/28 00:58:12;;;;;;;2.10;1.40;;;;;;;;;;4992455;28;20644;-81
2023/07/28 01:00:38;;;;;;;1.38;0.80;;;;;;;;;;4992372;28;20041;-79
2023/07/28 01:03:04;;;;;;;1.95;0.90;;;;;;;;;;4992392;28;20097;-83
2023/07/28 01:06:02;;;;;;;8.32;0.75;;;18.10;94.20;;;;;;4992248;28;20042;-82
2023/07/28 01:08:37;;;;;;;1.42;0.82;;;18.10;93.80;;;;;;5009256;28;20072;-83
2023/07/28 01:11:03;;;;;;;1.10;0.73;;;;;;;;;;5009572;28;20030;-82
2023/07/28 01:13:29;;;;;;;2.35;1.38;;;;;;;;;;5009083;28;20498;-82
2023/07/28 01:15:55;;;;;;;1.85;0.90;;;18.00;99.50;;;;;;4996711;28;20037;-82
2023/07/28 01:18:21;;;;;;;0.95;0.70;;;;;;;;;;5009017;28;20026;-82
2023/07/28 01:20:49;;;;;;;2.05;1.10;;;18.20;93.70;;;;;;4996609;28;20486;-83
2023/07/28 01:23:30;;;;;;;2.88;1.02;;;18.30;94.50;;;;;;5009319;28;20569;-82
2023/07/28 01:26:12;;;;;;;1.33;1.20;;;18.20;97.30;;;;;;5025691;28;20064;-81
2023/07/28 01:28:41;;;;;;;1.38;0.75;;;18.20;93.80;;;;;;5008881;28;20038;-82
2023/07/28 01:31:08;;;;;;;1.45;0.82;;;18.10;94.20;;;;;;5009203;28;20483;-82
2023/07/28 01:33:34;;;;;;;1.42;0.82;;;;;;;;;;5009164;28;20037;-82
2023/07/28 01:36:00;;;;;;;3.22;0.90;;;;;;;;;;5008318;28;20038;-81
2023/07/28 01:38:27;;;;;;;1.58;1.20;;;;;;;;;;5008528;28;20554;-81
2023/07/28 01:40:53;;;;;;;1.95;0.60;;;;;;;;;;5008903;28;20400;-81
2023/07/28 01:43:19;;;;;;;2.72;1.08;;;;;;;;;;5008927;28;20811;-82
2023/07/28 01:45:45;;;;;;;2.08;0.98;;;;;;;;;;4986761;28;20610;-81
2023/07/28 01:48:11;;;;;;;1.75;0.77;;;;;;;;;;4992214;28;20039;-82
2023/07/28 01:50:37;;;;;;;1.63;0.80;;;;;;;;;;4991600;28;20522;-82
2023/07/28 01:53:06;;;;;;;3.78;0.95;;;17.80;96.00;;;;;;4991922;28;20038;-82
2023/07/28 01:55:32;;;;;;;10.45;0.95;;;;;;;;;;4991539;28;20125;-81
2023/07/28 01:57:59;;;;;;;1.80;1.00;;;17.80;95.90;;;;;;4991532;28;20337;-82
2023/07/28 02:00:25;;;;;;;;;;;17.90;97.20;;;;;;4991955;28;20045;-82
2023/07/28 02:02:52;;;;;;;1.10;0.70;;;18.00;99.90;;;;;;4990615;28;20004;-82
2023/07/28 02:05:18;;;;;;;1.20;0.82;;;;;;;;;;4989935;28;20527;-81
2023/07/28 02:07:44;;;;;;;1.45;0.80;;;;;;;;;;4993373;28;20029;-81
2023/07/28 02:10:10;;;;;;;1.58;0.80;;;;;;;;;;4991575;28;20022;-82
2023/07/28 02:12:37;;;;;;;1.73;0.80;;;;;;;;;;4991071;28;20030;-81
2023/07/28 02:15:03;;;;;;;0.65;0.50;;;;;;;;;;4985256;28;20507;-81
2023/07/28 02:17:29;;;;;;;2.00;1.00;;;;;;;;;;4984219;28;20101;-81
2023/07/28 02:19:55;;;;;;;2.35;1.02;;;;;;;;;;4991067;28;20230;-81
2023/07/28 02:22:21;;;;;;;2.05;1.08;;;;;;;;;;4991116;28;20057;-82
2023/07/28 02:24:47;;;;;;;0.88;0.50;;;17.40;99.90;;;;;;4990773;28;20066;-82
2023/07/28 02:27:13;;;;;;;2.13;0.80;;;;;;;;;;4991532;28;20026;-82
2023/07/28 02:29:39;;;;;;;1.27;0.65;;;;;;;;;;4991470;28;20490;-82
2023/07/28 02:32:05;;;;;;;2.38;1.13;;;;;;;;;;4990841;28;20025;-82
2023/07/28 02:34:31;;;;;;;1.35;0.88;;;;;;;;;;4990358;28;20040;-80
2023/07/28 02:36:57;;;;;;;2.05;0.88;;;;;;;;;;4990798;28;20130;-82
2023/07/28 02:39:24;;;;;;;1.02;0.50;;;;;;;;;;4990638;28;20041;-82
2023/07/28 02:41:50;;;;;;;1.60;0.77;;;;;;;;;;4990072;28;20019;-81
2023/07/28 02:44:16;;;;;;;2.05;1.02;;;;;;;;;;4994135;28;20038;-82
2023/07/28 02:46:42;;;;;;;0.73;0.73;;;;;;;;;;4991679;28;20030;-81
2023/07/28 02:49:08;;;;;;;2.70;0.90;;;;;;;;;;5000596;28;20613;-81
2023/07/28 02:51:34;;;;;;;1.60;0.60;;;;;;;;;;4991162;28;20094;-82
2023/07/28 02:54:00;;;;;;;1.55;0.77;;;;;;;;;;4990741;28;20018;-82
2023/07/28 02:56:26;;;;;;;1.92;0.90;;;;;;;;;;4990828;28;20030;-82
2023/07/28 02:58:53;;;;;;;1.08;0.77;;;;;;;;;;4989190;28;20033;-81
2023/07/28 03:01:19;;;;;;;1.70;0.90;;;;;;;;;;4990967;28;20430;-82
2023/07/28 03:03:45;;;;;;;0.88;0.60;;;;;;;;;;4990173;28;20038;-82
2023/07/28 03:06:11;;;;;;;1.47;0.87;;;;;;;;;;4990294;28;20157;-81
2023/07/28 03:08:37;;;;;;;2.10;1.25;;;17.10;99.90;;;;;;4988866;28;20125;-81
2023/07/28 03:11:03;;;;;;;1.48;0.82;;;;;;;;;;4990390;28;20031;-81
2023/07/28 03:13:29;;;;;;;3.78;1.27;;;16.80;99.80;;;;;;4990260;28;20030;-81
2023/07/28 03:15:55;;;;;;;1.98;0.80;;;;;;;;;;4990118;28;20105;-82
2023/07/28 03:18:21;;;;;;;4.07;1.00;;;;;;;;;;4988636;28;20110;-81
2023/07/28 03:20:47;;;;;;;2.55;1.10;;;;;;;;;;4988952;28;20109;-81
2023/07/28 03:23:14;;;;;;;1.17;0.85;;;;;;;;;;4989684;28;20050;-82
2023/07/28 03:25:40;;;;;;;1.92;1.15;;;;;;;;;;4990311;28;20034;-81
2023/07/28 03:28:05;;;;;;;1.77;1.35;;;17.10;99.90;;;;;;4989807;28;20497;-80
2023/07/28 03:30:31;;;;;;;1.73;0.93;;;;;;;;;;4989898;28;20026;-82
2023/07/28 03:32:57;;;;;;;1.88;1.10;;;;;;;;;;4989425;28;20045;-81
2023/07/28 03:35:23;;;;;;;1.60;0.80;;;;;;;;;;4988935;28;20137;-81
2023/07/28 03:37:49;;;;;;;2.55;1.08;;;;;;;;;;4989005;28;20220;-81
2023/07/28 03:40:15;;;;;;;1.73;1.17;;;16.20;99.90;;;;;;4990298;28;20037;-82
2023/07/28 03:42:41;;;;;;;1.40;0.88;;;;;;;;;;4989905;28;20088;-81
2023/07/28 03:45:07;;;;;;;1.75;0.80;;;16.20;99.90;;;;;;4977156;28;20404;-81
2023/07/28 03:47:33;;;;;;;1.42;0.77;;;;;;;;;;4989460;28;20089;-82
2023/07/28 03:49:59;;;;;;;1.10;1.00;;;;;;;;;;4990019;28;20026;-82
2023/07/28 03:52:25;;;;;;;3.22;0.95;;;16.60;99.90;;;;;;4988515;28;20019;-81
2023/07/28 03:54:50;;;;;;;1.85;1.10;;;;;;;;;;4989599;28;20027;-82
2023/07/28 03:57:16;;;;;;;2.28;0.98;;;;;;;;;;4989353;28;20022;-82
2023/07/28 03:59:42;;;;;;;0.90;0.73;;;;;;;;;;4991480;28;20053;-81
2023/07/28 04:02:08;;;;;;;3.42;1.80;;;16.00;99.90;;;;;;4989407;28;20026;-82
2023/07/28 04:04:35;;;;;;;1.00;0.65;;;16.50;99.90;;;;;;4988970;28;20034;-82
2023/07/28 04:07:01;;;;;;;1.92;1.10;;;;;;;;;;4989494;28;20027;-82
2023/07/28 04:09:27;;;;;;;1.63;1.08;;;;;;;;;;4989530;28;20036;-81
2023/07/28 04:11:53;;;;;;;1.83;0.90;;;;;;;;;;4989229;28;20022;-81
2023/07/28 04:14:19;;;;;;;2.90;1.00;;;;;;;;;;4989244;28;20116;-81
2023/07/28 04:16:45;;;;;;;1.23;0.60;;;;;;;;;;4989105;28;20129;-82
2023/07/28 04:19:11;;;;;;;2.72;1.02;;;;;;;;;;4989323;28;20084;-82
2023/07/28 04:21:39;;;;;;;1.65;0.85;;;;;;;;;;4989031;28;20022;-82
2023/07/28 04:24:07;;;;;;;4.43;1.10;;;16.50;99.90;;;;;;4989373;28;20043;-82
2023/07/28 04:26:33;;;;;;;1.77;1.00;;;;;;;;;;4989631;28;20029;-82
2023/07/28 04:28:59;;;;;;;2.90;1.00;;;;;;;;;;4989010;28;20403;-82
2023/07/28 04:31:24;;;;;;;1.52;1.00;;;16.60;99.90;;;;;;4989531;28;20026;-82
2023/07/28 04:33:50;;;;;;;1.10;0.57;;;;;;;;;;4986896;28;20458;-83
2023/07/28 04:36:16;;;;;;;3.63;1.30;;;;;;;;;;4989186;28;20050;-81
2023/07/28 04:38:42;;;;;;;2.83;1.10;;;;;;;;;;4989259;28;20407;-82
2023/07/28 04:41:08;;;;;;;3.72;1.17;;;;;;;;;;4989491;28;20023;-82
2023/07/28 04:43:34;;;;;;;2.28;1.35;;;;;;;;;;4988452;28;20118;-82
2023/07/28 04:46:00;;;;;;;9.90;1.10;;;;;;;;;;4988928;28;20555;-82
2023/07/28 04:48:27;;;;;;;2.97;1.38;;;16.40;99.90;;;;;;4988917;28;20065;-82
2023/07/28 04:50:53;;;;;;;2.40;1.25;;;;;;;;;;4992622;28;20491;-81
2023/07/28 04:53:20;;;;;;;2.92;1.60;;;;;;;;;;4992515;28;20034;-82
2023/07/28 04:55:46;;;;;;;3.08;1.45;;;;;;;;;;4988856;28;20096;-82
2023/07/28 04:58:12;;;;;;;4.40;0.93;;;;;;;;;;4987096;28;20054;-82
2023/07/28 05:00:38;;;;;;;1.30;0.90;;;;;;;;;;4989214;28;20485;-82
2023/07/28 05:03:04;;;;;;;2.83;1.33;;;;;;;;;;4988555;28;20130;-82
2023/07/28 05:05:29;;;;;;;1.60;1.10;;;16.90;99.90;;;;;;4988892;28;20046;-81
2023/07/28 05:07:55;;;;;;;2.45;0.93;;;;;;;;;;4976343;28;20035;-82
2023/07/28 05:10:21;;;;;;;2.35;0.93;;;;;;;;;;4989041;28;20144;-81
2023/07/28 05:12:47;;;;;;;4.00;1.40;;;;;;;;;;4992336;28;20022;-82
2023/07/28 05:15:15;;;;;;;3.55;1.45;;;17.00;99.90;;;;;;4992706;28;20023;-83
2023/07/28 05:17:40;;;;;;;;;;;17.30;99.90;;;;;;4992290;28;20093;-82
2023/07/28 05:20:06;;;;;;;1.33;0.90;;;;;;;;;;4992090;28;19909;-82
2023/07/28 05:22:32;;;;;;;2.15;0.95;;;;;;;;;;4991908;28;20112;-82
2023/07/28 05:24:58;;;;;;;15.60;1.48;;;;;;;;;;4991992;28;20093;-82
2023/07/28 05:27:24;;;;;;;4.32;1.77;;;;;;;;;;4991569;28;20084;-83
2023/07/28 05:29:51;;;;;;;2.65;1.20;;;;;;;;;;4986012;28;20037;-83
2023/07/28 05:32:17;;;;;;;2.72;1.20;;;;;;;;;;4986158;28;20030;-83
2023/07/28 05:34:43;;;;;;;2.20;1.48;;;17.90;98.50;;;;;;4991475;28;20026;-83
2023/07/28 05:37:09;;;;;;;1.83;1.43;;;;;;;;;;4991864;28;20042;-83
2023/07/28 05:39:35;;;;;;;2.78;1.48;;;;;;;;;;4991710;28;20770;-82
2023/07/28 05:42:01;;;;;;;1.35;1.10;;;;;;;;;;4991720;28;20067;-82
2023/07/28 05:44:28;;;;;;;2.40;1.40;;;18.30;97.40;;;;;;4991550;28;20536;-83
2023/07/28 05:46:54;;;;;;;1.77;0.95;;;;;;;;;;4991170;28;20272;-83
2023/07/28 05:49:20;;;;;;;2.58;1.50;;;;;;;;;;4991752;28;20030;-82
2023/07/28 05:51:45;;;;;;;9.18;1.60;;;19.00;98.80;;;;;;4991508;28;20031;-82
2023/07/28 05:54:14;;;;;;;3.60;1.60;;;18.90;96.00;;;;;;4999395;28;20513;-82
2023/07/28 05:56:40;;;;;;;2.40;1.33;;;;;;;;;;4996846;28;20030;-82
2023/07/28 05:59:06;;;;;;;4.25;1.08;;;;;;;;;;4992408;28;20042;-83
2023/07/28 06:01:33;;;;;;;3.88;0.90;;;;;;;;;;4991943;28;20110;-79
2023/07/28 06:03:59;;;;;;;4.28;1.52;;;;;;;;;;4990540;28;20034;-79
2023/07/28 06:06:27;;;;;;;7.38;1.65;;;19.60;99.90;;;;;;4993742;28;20026;-79
2023/07/28 06:08:53;;;;;;;2.80;1.63;;;;;;;;;;4991332;28;20083;-79
2023/07/28 06:11:20;;;;;;;2.30;1.17;;;;;;;;;;4991014;28;20026;-79
2023/07/28 06:13:46;;;;;;;1.65;1.25;;;;;;;;;;4991029;28;20026;-79
2023/07/28 06:16:12;;;;;;;3.23;1.57;;;;;;;;;;4991444;28;20037;-79
2023/07/28 06:18:38;;;;;;;1.92;1.00;;;;;;;;;;4991053;28;20026;-79
2023/07/28 06:21:04;;;;;;;4.47;1.58;;;20.80;94.40;;;;;;4990542;28;20408;-80
2023/07/28 06:23:30;;;;;;;1.88;0.95;;;;;;;;;;4989843;28;20101;-81
2023/07/28 06:25:56;;;;;;;2.53;1.45;;;;;;;;;;4990749;28;20022;-81
2023/07/28 06:28:22;;;;;;;6.07;1.45;;;;;;;;;;4991222;28;20080;-81
2023/07/28 06:30:54;;;;;;;2.30;1.35;;;21.70;84.50;;;;;;4989363;28;20061;-81
2023/07/28 06:33:20;;;;;;;3.55;1.15;;;;;;;;;;4990718;28;20032;-81
2023/07/28 06:35:45;;;;;;;1.58;0.80;;;;;;;;;;4989380;28;20077;-81
2023/07/28 06:38:12;;;;;;;4.72;1.77;;;;;;;;;;4990251;28;20101;-81
2023/07/28 06:40:38;;;;;;;3.13;1.40;;;;;;;;;;4990236;28;20045;-81
2023/07/28 06:43:03;;;;;;;5.20;1.23;;;;;;;;;;4990520;28;20022;-81
2023/07/28 06:45:29;;;;;;;3.00;1.30;;;23.80;80.60;;;;;;4989082;28;20530;-81
2023/07/28 06:47:56;;;;;;;2.75;1.25;;;;;;;;;;4990459;28;20073;-81
2023/07/28 06:50:22;;;;;;;4.80;1.20;;;;;;;;;;4990794;28;20023;-82
2023/07/28 06:52:49;;;;;;;2.65;1.55;;;;;;;;;;4990608;28;20036;-81
2023/07/28 06:55:16;;;;;;;3.92;1.50;;;;;;;;;;4989918;28;20034;-81
2023/07/28 06:57:42;;;;;;;3.22;1.65;;;;;;;;;;4995828;28;20036;-80
2023/07/28 07:00:11;;;;;;;8.05;1.52;;;37.10;47.80;;;;;;4998588;28;20026;-80
2023/07/28 07:02:37;;;;;;;2.15;1.52;;;40.50;51.80;;;;;;4985260;28;20047;-79
2023/07/28 07:05:03;;;;;;;3.17;1.13;;;43.30;39.40;;;;;;4987020;28;20076;-79
2023/07/28 07:07:29;;;;;;;1.98;1.13;;;45.20;44.50;;;;;;4990474;28;20026;-80
2023/07/28 07:09:55;;;;;;;5.55;1.45;;;;;;;;;;4990179;28;20042;-80
2023/07/28 07:12:21;;;;;;;;;;;48.70;32.60;;;;;;4990707;28;20125;-80
2023/07/28 07:14:47;;;;;;;3.30;1.00;;;;;;;;;;4989757;28;19906;-79
2023/07/28 07:17:13;;;;;;;5.22;1.08;;;;;;;;;;4989910;28;20033;-79
2023/07/28 07:19:39;;;;;;;2.40;1.02;;;;;;;;;;4989974;28;20034;-79
2023/07/28 07:22:05;;;;;;;8.88;1.48;;;;;;;;;;4990007;28;20026;-80
2023/07/28 07:24:31;;;;;;;3.50;1.17;;;;;;;;;;4989629;28;20165;-80
2023/07/28 07:26:57;;;;;;;1.50;0.80;;;;;;;;;;4990022;28;20505;-79
2023/07/28 07:29:23;;;;;;;1.95;1.00;;;51.20;35.30;;;;;;4989652;28;20080;-79
2023/07/28 07:31:49;;;;;;;2.08;1.15;;;;;;;;;;4990209;28;20046;-79
2023/07/28 07:34:15;;;;;;;1.63;0.88;;;;;;;;;;4989086;28;20042;-80
2023/07/28 07:36:41;;;;;;;3.80;0.90;;;51.60;32.90;;;;;;4988245;28;20092;-80
2023/07/28 07:39:07;;;;;;;0.80;0.60;;;;;;;;;;4988682;28;20026;-80
2023/07/28 07:41:33;;;;;;;1.15;0.90;;;;;;;;;;4990079;28;20396;-79
2023/07/28 07:43:59;;;;;;;6.05;0.95;;;;;;;;;;4989174;28;20058;-80
2023/07/28 07:46:25;;;;;;;1.33;0.70;;;;;;;;;;4988521;28;20026;-80
2023/07/28 07:48:51;;;;;;;1.67;0.88;;;;;;;;;;4989184;28;20036;-80
2023/07/28 07:51:18;;;;;;;2.05;0.80;;;;;;;;;;4989564;28;20384;-80
2023/07/28 07:53:44;;;;;;;2.10;0.90;;;;;;;;;;4989265;28;20031;-80
2023/07/28 07:56:10;;;;;;;2.47;1.00;;;40.40;29.70;;;;;;4989462;28;20040;-79
2023/07/28 07:58:36;;;;;;;1.50;0.82;;;38.10;31.10;;;;;;4989065;28;20030;-79
2023/07/28 08:01:02;;;;;;;;;;;37.00;32.00;;;;;;4990229;28;20034;-79
2023/07/28 08:03:28;;;;;;;10.98;1.30;;;;;;;;;;4988597;28;19920;-79
2023/07/28 08:05:54;;;;;;;4.63;0.93;;;;;;;;;;4989171;28;20026;-79
2023/07/28 08:08:21;;;;;;;2.45;0.77;;;;;;;;;;4988961;28;20506;-80
2023/07/28 08:10:47;;;;;;;1.13;0.60;;;;;;;;;;4989364;28;20036;-79
2023/07/28 08:13:13;;;;;;;;;;;40.10;29.80;;;;;;4989874;28;20030;-79
2023/07/28 08:15:38;;;;;;;1.48;0.80;;;;;;;;;;4998757;28;19906;-79
2023/07/28 08:18:04;;;;;;;1.77;0.90;;;;;;;;;;4989025;28;20026;-79
2023/07/28 08:20:30;;;;;;;1.33;0.75;;;;;;;;;;4988807;28;20025;-79
2023/07/28 08:22:57;;;;;;;1.60;0.80;;;;;;;;;;4988975;28;20034;-79
2023/07/28 08:25:23;;;;;;;2.33;1.20;;;;;;;;;;4989057;28;20466;-79
2023/07/28 08:27:49;;;;;;;1.85;0.90;;;;;;;;;;4988495;28;20081;-80
2023/07/28 08:30:15;;;;;;;1.60;1.00;;;45.10;37.40;;;;;;4989087;28;20030;-79
2023/07/28 08:32:44;;;;;;;;;;;45.40;27.70;;;;;;4987366;28;20468;-80
2023/07/28 08:35:10;;;;;;;2.38;0.93;;;;;;;;;;4987166;28;19991;-79
2023/07/28 08:37:36;;;;;;;1.52;0.70;;;;;;;;;;4988908;28;20034;-80
2023/07/28 08:40:04;;;;;;;1.35;0.70;;;;;;;;;;4988816;28;20504;-80
2023/07/28 08:42:30;;;;;;;1.42;0.80;;;51.50;25.00;;;;;;4988511;28;20512;-79
2023/07/28 08:44:57;;;;;;;2.03;0.80;;;53.60;24.40;;;;;;4987043;28;20027;-80
2023/07/28 08:47:23;;;;;;;1.95;1.20;;;;;;;;;;4992166;28;20391;-78
2023/07/28 08:49:48;;;;;;;1.17;0.80;;;56.00;28.30;;;;;;4992493;28;20027;-80
2023/07/28 08:52:17;;;;;;;2.63;1.10;;;57.30;22.90;;;;;;4997794;28;20364;-80
2023/07/28 08:54:43;;;;;;;1.17;0.77;;;;;;;;;;4998503;28;20067;-80
2023/07/28 08:57:10;;;;;;;1.20;0.93;;;53.90;23.30;;;;;;4993792;28;20061;-80
2023/07/28 08:59:36;;;;;;;1.55;0.90;;;48.30;31.70;;;;;;4993297;28;20114;-80
2023/07/28 09:02:04;;;;;;;1.42;1.00;;;;;;;;;;4992219;28;20019;-79
2023/07/28 09:04:30;;;;;;;2.10;0.60;;;;;;;;;;4991670;28;20097;-80
2023/07/28 09:06:56;;;;;;;2.53;0.93;;;;;;;;;;4992447;28;20030;-79
2023/07/28 09:09:23;;;;;;;1.88;0.95;;;42.10;27.50;;;;;;4992685;28;20041;-80
2023/07/28 09:11:51;;;;;;;1.75;1.00;;;42.30;27.50;;;;;;4992047;28;20162;-80
2023/07/28 09:14:18;;;;;;;1.33;0.85;;;41.90;27.80;;;;;;4992125;28;20077;-80
2023/07/28 09:16:44;;;;;;;1.55;1.00;;;;;;;;;;4992448;28;20597;-81
2023/07/28 09:19:10;;;;;;;;;;;43.10;27.90;;;;;;4992419;28;20023;-79
2023/07/28 09:21:40;;;;;;;1.42;0.93;;;46.00;26.10;;;;;;4990355;28;19910;-79
2023/07/28 09:24:10;;;;;;;1.67;0.90;;;47.50;32.60;;;;;;4991965;28;20031;-80
2023/07/28 09:26:44;;;;;;;1.38;1.00;;;48.10;29.90;;;;;;4980235;28;20053;-79
2023/07/28 09:29:23;;;;;;;3.70;0.98;;;48.90;24.50;;;;;;4991855;28;20049;-80
2023/07/28 09:31:50;;;;;;;2.25;1.20;;;49.90;23.80;;;;;;4990606;28;20451;-79
2023/07/28 09:34:28;;;;;;;1.30;0.80;;;51.50;29.00;;;;;;4990141;28;20110;-79
2023/07/28 09:36:59;;;;;;;1.42;1.00;;;51.60;22.80;;;;;;4991825;28;20073;-80
2023/07/28 09:39:25;;;;;;;1.10;0.93;;;;;;;;;;4991628;28;20030;-79
2023/07/28 09:41:51;;;;;;;2.30;0.50;;;53.20;22.30;;;;;;4991606;28;20165;-79
2023/07/28 09:44:17;;;;;;;1.48;0.90;;;;;;;;;;4991951;28;20038;-80
2023/07/28 09:46:51;;;;;;;3.88;1.60;;;56.00;21.90;;;;;;4992007;28;20160;-79
2023/07/28 09:49:28;;;;;;;1.10;0.90;;;56.80;21.50;;;;;;4979756;28;20152;-79
2023/07/28 09:51:59;;;;;;;1.27;1.00;;;58.40;21.70;;;;;;4991771;28;20026;-79
2023/07/28 09:54:29;;;;;;;1.98;1.20;;;58.80;22.50;;;;;;4991509;28;20022;-80
2023/07/28 09:56:58;;;;;;;1.60;1.15;;;56.90;26.50;;;;;;4990853;28;20049;-80
2023/07/28 09:59:31;;;;;;;1.73;1.00;;;57.70;21.00;;;;;;4991457;28;20149;-80
2023/07/28 10:01:58;;;;;;;1.33;0.98;;;57.60;26.40;;;;;;4991057;28;20029;-79
2023/07/28 10:04:24;;;;;;;1.25;0.93;;;;;;;;;;4991004;28;20161;-80
2023/07/28 10:06:56;;;;;;;1.40;1.00;;;57.40;20.70;;;;;;4991459;28;20106;-80
2023/07/28 10:09:24;;;;;;;2.88;1.25;;;57.50;20.80;;;;;;4993661;28;20038;-80
2023/07/28 10:11:50;;;;;;;1.30;0.90;;;58.10;27.10;;;;;;4989785;28;20558;-80
2023/07/28 10:14:27;;;;;;;2.10;1.10;;;58.20;20.70;;;;;;4990766;28;20018;-79
2023/07/28 10:16:53;;;;;;;6.78;1.05;;;59.30;26.80;;;;;;4978950;28;20034;-79
2023/07/28 10:19:24;;;;;;;1.48;0.70;;;58.20;20.40;;;;;;4991423;28;20019;-79
2023/07/28 10:21:50;;;;;;;2.15;0.75;;;;;;;;;;4991348;28;20034;-80
2023/07/28 10:24:16;;;;;;;3.03;1.08;;;;;;;;;;4990989;28;20045;-80
2023/07/28 10:26:43;;;;;;;3.30;1.17;;;;;;;;;;4990894;28;20030;-80
2023/07/28 10:29:15;;;;;;;2.63;0.90;;;53.30;22.20;;;;;;4990762;28;20109;-80
2023/07/28 10:31:52;;;;;;;1.52;0.80;;;55.80;27.90;;;;;;4990866;28;20029;-80
2023/07/28 10:34:18;;;;;;;1.70;1.02;;;56.20;20.70;;;;;;4989155;28;20605;-80
2023/07/28 10:36:45;;;;;;;1.10;1.00;;;;;;;;;;4990594;28;20058;-79
2023/07/28 10:39:17;;;;;;;4.50;0.90;;;57.20;20.40;;;;;;4990454;28;20037;-79
2023/07/28 10:42:08;;;;;;;1.25;0.90;;;56.00;20.30;;;;;;4991038;28;20038;-80
2023/07/28 10:44:34;;;;;;;1.45;0.93;;;;;;;;;;4999146;28;20050;-80
2023/07/28 10:47:01;;;;;;;1.40;0.90;;;56.30;22.00;;;;;;4990324;28;20026;-79
2023/07/28 10:49:28;;;;;;;1.30;0.98;;;53.10;28.00;;;;;;4990942;28;20426;-80
2023/07/28 10:51:55;;;;;;;3.20;1.20;;;;;;;;;;4990499;28;20117;-80
2023/07/28 10:54:21;;;;;;;1.17;0.82;;;55.00;25.40;;;;;;4989786;28;20034;-80
2023/07/28 10:56:48;;;;;;;2.15;0.80;;;51.80;21.10;;;;;;4993004;28;20494;-80
2023/07/28 10:59:15;;;;;;;1.92;0.73;;;;;;;;;;4990746;28;20033;-79
2023/07/28 11:01:41;;;;;;;1.83;1.02;;;47.90;23.50;;;;;;4990126;28;20030;-79
2023/07/28 11:04:17;;;;;;;2.08;0.90;;;50.60;22.70;;;;;;4989569;28;20045;-80
2023/07/28 11:06:48;;;;;;;4.10;1.17;;;50.90;22.60;;;;;;4989847;28;20047;-79
2023/07/28 11:09:16;;;;;;;1.08;0.65;;;49.60;22.50;;;;;;4989630;28;20037;-80
2023/07/28 11:11:43;;;;;;;1.20;0.88;;;46.10;23.40;;;;;;4989365;28;20034;-80
2023/07/28 11:14:09;;;;;;;1.02;0.57;;;;;;;;;;4989528;28;20030;-80
2023/07/28 11:16:40;;;;;;;2.10;1.10;;;43.00;35.90;;;;;;4989717;28;20030;-80
2023/07/28 11:19:11;;;;;;;2.25;1.00;;;47.00;24.50;;;;;;4989812;28;20034;-80
2023/07/28 11:21:41;;;;;;;1.48;0.77;;;50.80;23.20;;;;;;4989940;28;20080;-80
2023/07/28 11:24:10;;;;;;;1.23;0.85;;;;;;;;;;4989752;28;20121;-80
2023/07/28 11:26:38;;;;;;;2.05;0.93;;;53.80;21.20;;;;;;4988710;28;20034;-81
2023/07/28 11:29:04;;;;;;;1.20;0.93;;;54.50;21.20;;;;;;4989511;28;20026;-80
2023/07/28 11:31:30;;;;;;;3.17;1.30;;;;;;;;;;4989928;28;20038;-80
2023/07/28 11:33:56;;;;;;;1.92;0.88;;;;;;;;;;4989343;28;20064;-80
2023/07/28 11:36:26;;;;;;;1.50;0.70;;;53.00;20.90;;;;;;4989725;28;20125;-80
2023/07/28 11:38:54;;;;;;;1.55;0.80;;;51.70;21.10;;;;;;4989270;28;20033;-80
2023/07/28 11:41:21;;;;;;;1.38;0.77;;;51.10;22.50;;;;;;4988319;28;20041;-80
2023/07/28 11:43:49;;;;;;;2.13;0.93;;;51.90;21.20;;;;;;4988851;28;20060;-79
2023/07/28 11:46:35;;;;;;;1.50;0.70;;;52.00;21.20;;;;;;4988121;28;20464;-80
2023/07/28 11:49:29;;;;;;;1.33;0.80;;;53.00;23.20;;;;;;4989135;28;20050;-80
2023/07/28 11:51:58;;;;;;;2.58;1.20;;;;;;;;;;4991987;28;20411;-79
2023/07/28 11:54:25;;;;;;;2.00;1.08;;;53.30;20.90;;;;;;4989400;28;20085;-80
2023/07/28 11:56:55;;;;;;;2.10;0.88;;;53.70;20.90;;;;;;4989315;28;20034;-80
2023/07/28 11:59:21;;;;;;;1.60;0.90;;;;;;;;;;4989332;28;20022;-79
2023/07/28 12:01:59;;;;;;;1.17;0.70;;;49.80;21.20;;;;;;4989113;28;20038;-80
2023/07/28 12:04:28;;;;;;;1.73;0.93;;;47.30;22.20;;;;;;4989097;28;20038;-79
2023/07/28 12:07:06;;;;;;;4.07;0.93;;;46.50;31.80;;;;;;4991587;28;20117;-80
2023/07/28 12:09:53;;;;;;;1.55;0.85;;;45.80;22.70;;;;;;4989307;28;20116;-80
2023/07/28 12:12:22;;;;;;;4.20;0.80;;;44.20;23.50;;;;;;4979195;28;20049;-79
2023/07/28 12:14:51;;;;;;;1.70;0.88;;;;;;;;;;4989001;28;20117;-80
2023/07/28 12:17:21;;;;;;;1.65;1.23;;;40.60;25.70;;;;;;4989412;28;20036;-80
2023/07/28 12:20:10;;;;;;;1.73;0.75;;;39.20;26.10;;;;;;4988408;28;20076;-79
2023/07/28 12:22:36;;;;;;;1.75;0.65;;;;;;;;;;4988685;28;20026;-79
2023/07/28 12:25:02;;;;;;;2.13;0.77;;;;;;;;;;4988836;28;20034;-80
2023/07/28 12:27:28;;;;;;;1.48;0.88;;;;;;;;;;4988862;28;20607;-79
2023/07/28 12:29:54;;;;;;;3.42;0.98;;;;;;;;;;4989369;28;20105;-79
2023/07/28 12:32:20;;;;;;;2.03;1.08;;;;;;;;;;4988823;28;20030;-80
2023/07/28 12:34:46;;;;;;;3.75;1.23;;;;;;;;;;4988784;28;20106;-80
2023/07/28 12:37:11;;;;;;;3.05;1.30;;;34.30;31.00;;;;;;4987431;28;20027;-79
2023/07/28 12:39:41;;;;;;;1.73;0.80;;;;;;;;;;4993773;28;20574;-80
2023/07/28 12:42:10;;;;;;;3.72;1.17;;;34.30;30.40;;;;;;4988387;28;20027;-79
2023/07/28 12:44:37;;;;;;;4.93;0.93;;;34.10;30.20;;;;;;4988229;28;20031;-79
2023/07/28 12:47:03;;;;;;;1.55;0.60;;;;;;;;;;4988689;28;20117;-80
2023/07/28 12:49:30;;;;;;;1.15;0.70;;;34.40;44.40;;;;;;4992491;28;20037;-80
2023/07/28 12:51:57;;;;;;;2.45;1.20;;;34.00;30.10;;;;;;4993159;28;20109;-79
2023/07/28 12:54:24;;;;;;;2.92;0.85;;;;;;;;;;4988592;28;20019;-79
2023/07/28 12:56:50;;;;;;;6.20;1.00;;;;;;;;;;4988263;28;20528;-80
2023/07/28 12:59:16;;;;;;;5.00;1.30;;;;;;;;;;4988608;28;20503;-79
2023/07/28 13:01:42;;;;;;;3.30;1.57;;;;;;;;;;4988597;28;20037;-80
2023/07/28 13:04:08;;;;;;;2.70;1.17;;;;;;;;;;4988249;28;20348;-79
2023/07/28 13:06:34;;;;;;;1.90;0.80;;;;;;;;;;4988401;28;20041;-81
2023/07/28 13:09:00;;;;;;;5.40;0.90;;;;;;;;;;4988846;28;20034;-80
2023/07/28 13:11:26;;;;;;;2.40;0.80;;;;;;;;;;4988323;28;20534;-80
2023/07/28 13:13:52;;;;;;;1.73;1.03;;;;;;;;;;4988336;28;20316;-80
2023/07/28 13:16:18;;;;;;;4.13;1.00;;;;;;;;;;4988841;28;20031;-80
2023/07/28 13:18:44;;;;;;;1.13;0.67;;;;;;;;;;4988345;28;20265;-80
2023/07/28 13:21:10;;;;;;;2.30;1.00;;;;;;;;;;4988250;28;20484;-79
2023/07/28 13:23:37;;;;;;;1.63;0.90;;;;;;;;;;4988480;28;20031;-80
2023/07/28 13:26:06;;;;;;;3.47;1.13;;;;;;;;;;4988414;28;20030;-79
2023/07/28 13:28:32;;;;;;;4.03;1.30;;;;;;;;;;4988731;28;20137;-80
2023/07/28 13:30:58;;;;;;;2.47;1.27;;;;;;;;;;4988592;28;20026;-79
2023/07/28 13:33:24;;;;;;;1.63;0.83;;;;;;;;;;4990197;28;20288;-80
2023/07/28 13:35:50;;;;;;;2.40;1.10;;;;;;;;;;4992105;28;20650;-80
2023/07/28 13:38:16;;;;;;;1.70;0.93;;;;;;;;;;4992090;28;20149;-80
2023/07/28 13:40:42;;;;;;;1.70;0.63;;;;;;;;;;4978929;28;20023;-80
2023/07/28 13:43:08;;;;;;;1.20;0.70;;;;;;;;;;4992031;28;20699;-80
2023/07/28 13:45:34;;;;;;;3.20;1.10;;;;;;;;;;4991706;28;20030;-79
2023/07/28 13:48:00;;;;;;;1.60;0.90;;;;;;;;;;4991598;28;20030;-79
2023/07/28 13:50:25;;;;;;;1.33;0.60;;;32.70;47.20;;;;;;4991541;28;20038;-80
2023/07/28 13:52:51;;;;;;;1.47;0.67;;;;;;;;;;4992049;28;20034;-80
2023/07/28 13:55:17;;;;;;;0.90;0.50;;;;;;;;;;4991156;28;20030;-80
2023/07/28 13:57:44;;;;;;;1.43;0.50;;;;;;;;;;4991645;28;20023;-80
2023/07/28 14:00:10;;;;;;;1.48;0.60;;;33.00;32.70;;;;;;4991074;28;20572;-80